createdAt,value
2023-01-08T00:00:48.123Z,13.13
2023-01-08T00:03:15.448Z,13.63
2023-01-08T00:05:43.266Z,12.77
2023-01-08T00:08:10.912Z,10.88
2023-01-08T00:10:38.563Z,13.40
2023-01-08T00:13:06.723Z,11.73
2023-01-08T00:15:34.652Z,12.70
2023-01-08T00:18:01.821Z,14.70
2023-01-08T00:20:29.198Z,13.25
2023-01-08T00:22:55.979Z,12.52
2023-01-08T00:25:22.776Z,15.00
2023-01-08T00:27:49.643Z,12.75
2023-01-08T00:30:16.535Z,13.10
2023-01-08T00:32:43.354Z,13.45
2023-01-08T00:35:10.282Z,13.68
2023-01-08T00:37:37.037Z,14.20
2023-01-08T00:40:04.279Z,16.65
2023-01-08T00:42:31.059Z,19.33
2023-01-08T00:44:57.919Z,16.10
2023-01-08T00:47:24.752Z,13.52
2023-01-08T00:49:51.691Z,11.63
2023-01-08T00:52:18.543Z,10.82
2023-01-08T00:54:45.417Z,12.10
2023-01-08T00:57:12.223Z,12.45
2023-01-08T00:59:39.037Z,11.20
2023-01-08T01:02:05.888Z,10.77
2023-01-08T01:04:32.941Z,11.23
2023-01-08T01:07:02.610Z,10.75
2023-01-08T01:09:29.953Z,9.98
2023-01-08T01:11:56.945Z,11.32
2023-01-08T01:14:24.161Z,10.30
2023-01-08T01:16:51.237Z,10.98
2023-01-08T01:19:18.452Z,9.90
2023-01-08T01:21:45.327Z,10.73
2023-01-08T01:24:13.291Z,11.07
2023-01-08T01:26:40.853Z,10.43
2023-01-08T01:29:07.799Z,11.43
2023-01-08T01:31:34.717Z,9.57
2023-01-08T01:36:43.559Z,11.52
2023-01-08T01:39:10.707Z,9.88
2023-01-08T01:41:43.933Z,11.25
2023-01-08T01:44:40.255Z,11.30
2023-01-08T01:47:21.723Z,14.85
2023-01-08T01:50:22.689Z,16.40
2023-01-08T01:53:05.462Z,15.63
2023-01-08T01:55:33.815Z,11.57
2023-01-08T01:58:15.208Z,13.90
2023-01-08T02:00:43.241Z,10.60
2023-01-08T02:03:11.669Z,10.23
2023-01-08T02:05:49.998Z,10.77
2023-01-08T02:08:36.417Z,10.80
2023-01-08T02:11:34.150Z,8.60
2023-01-08T02:14:05.477Z,7.93
2023-01-08T02:16:50.486Z,6.33
2023-01-08T02:19:29.169Z,8.30
2023-01-08T02:22:28.203Z,6.40
2023-01-08T02:25:12.963Z,7.82
2023-01-08T02:27:44.075Z,7.47
2023-01-08T02:30:11.540Z,7.72
2023-01-08T02:32:40.489Z,6.60
2023-01-08T02:35:08.487Z,8.50
2023-01-08T02:37:36.728Z,9.00
2023-01-08T02:40:06.571Z,6.53
2023-01-08T02:42:39.459Z,6.53
2023-01-08T02:45:14.347Z,6.70
2023-01-08T02:47:50.171Z,6.65
2023-01-08T02:50:39.180Z,6.47
2023-01-08T02:53:15.187Z,9.18
2023-01-08T02:55:45.158Z,7.55
2023-01-08T02:58:13.073Z,7.10
2023-01-08T03:00:42.303Z,5.80
2023-01-08T03:03:14.549Z,7.03
2023-01-08T03:08:09.651Z,5.78
2023-01-08T03:10:39.553Z,5.35
2023-01-08T03:13:31.318Z,9.00
2023-01-08T03:16:01.088Z,5.70
2023-01-08T03:18:35.850Z,7.45
2023-01-08T03:21:05.515Z,6.72
2023-01-08T03:23:34.941Z,6.63
2023-01-08T03:26:03.525Z,5.43
2023-01-08T03:28:36.401Z,5.47
2023-01-08T03:31:03.307Z,6.10
2023-01-08T03:33:31.921Z,6.35
2023-01-08T03:36:01.204Z,5.82
2023-01-08T03:38:33.710Z,6.50
2023-01-08T03:41:07.315Z,5.28
2023-01-08T03:43:34.249Z,5.50
2023-01-08T03:46:04.029Z,5.63
2023-01-08T03:48:33.949Z,5.93
2023-01-08T03:51:00.903Z,6.60
2023-01-08T03:53:28.472Z,5.32
2023-01-08T03:55:56.672Z,6.15
2023-01-08T03:58:23.428Z,5.38
2023-01-08T04:00:50.204Z,8.00
2023-01-08T04:03:17.014Z,6.15
2023-01-08T04:05:43.805Z,5.82
2023-01-08T04:08:10.571Z,7.40
2023-01-08T04:10:37.370Z,6.68
2023-01-08T04:13:04.162Z,6.00
2023-01-08T04:15:34.674Z,7.93
2023-01-08T04:18:01.512Z,6.28
2023-01-08T04:20:28.269Z,7.30
2023-01-08T04:22:55.023Z,7.35
2023-01-08T04:25:21.784Z,6.30
2023-01-08T04:27:48.559Z,7.50
2023-01-08T04:30:15.420Z,6.05
2023-01-08T04:32:42.219Z,5.53
2023-01-08T04:35:09.479Z,5.57
2023-01-08T04:37:36.227Z,7.30
2023-01-08T04:40:03.321Z,6.43
2023-01-08T04:42:30.079Z,5.47
2023-01-08T04:44:56.864Z,6.78
2023-01-08T04:47:23.598Z,6.85
2023-01-08T04:49:50.368Z,8.38
2023-01-08T04:52:17.140Z,4.75
2023-01-08T04:54:43.976Z,5.75
2023-01-08T04:57:11.089Z,6.68
2023-01-08T04:59:37.826Z,6.25
2023-01-08T05:02:04.699Z,6.00
2023-01-08T05:04:31.617Z,4.78
2023-01-08T05:06:58.353Z,6.63
2023-01-08T05:09:25.246Z,7.57
2023-01-08T05:11:52.019Z,6.47
2023-01-08T05:14:18.845Z,7.45
2023-01-08T05:16:45.606Z,8.98
2023-01-08T05:19:12.415Z,5.22
2023-01-08T05:21:39.222Z,5.68
2023-01-08T05:24:06.391Z,4.38
2023-01-08T05:26:34.216Z,6.20
2023-01-08T05:29:01.312Z,5.93
2023-01-08T05:31:28.145Z,5.50
2023-01-08T05:33:57.213Z,6.28
2023-01-08T05:36:24.096Z,8.10
2023-01-08T05:38:50.941Z,9.57
2023-01-08T05:41:17.787Z,8.80
2023-01-08T05:43:44.576Z,9.30
2023-01-08T05:46:11.422Z,10.07
2023-01-08T05:48:38.692Z,9.70
2023-01-08T05:51:05.906Z,7.53
2023-01-08T05:53:33.100Z,7.28
2023-01-08T05:56:07.700Z,6.95
2023-01-08T05:58:35.619Z,5.70
2023-01-08T06:01:06.264Z,7.53
2023-01-08T06:03:33.136Z,6.78
2023-01-08T06:06:05.911Z,5.28
2023-01-08T06:08:34.604Z,6.30
2023-01-08T06:11:02.880Z,4.90
2023-01-08T06:13:29.942Z,4.63
2023-01-08T06:16:00.229Z,6.38
2023-01-08T06:18:28.588Z,6.18
2023-01-08T06:20:55.540Z,5.85
2023-01-08T06:23:22.306Z,5.68
2023-01-08T06:25:56.925Z,5.25
2023-01-08T06:28:24.285Z,5.57
2023-01-08T06:30:51.599Z,5.38
2023-01-08T06:33:21.205Z,4.18
2023-01-08T06:35:48.560Z,6.20
2023-01-08T06:38:15.788Z,5.88
2023-01-08T06:40:42.581Z,4.90
2023-01-08T06:43:09.388Z,5.45
2023-01-08T06:45:36.207Z,4.82
2023-01-08T06:48:05.186Z,7.20
2023-01-08T06:50:33.307Z,5.32
2023-01-08T06:53:00.100Z,5.93
2023-01-08T06:55:26.997Z,6.32
2023-01-08T06:57:58.459Z,7.65
2023-01-08T07:00:26.372Z,5.00
2023-01-08T07:02:54.543Z,16.27
2023-01-08T07:05:21.842Z,13.40
2023-01-08T07:07:48.893Z,10.27
2023-01-08T07:10:16.259Z,8.55
2023-01-08T07:12:43.802Z,6.65
2023-01-08T07:15:10.882Z,5.95
2023-01-08T07:17:37.795Z,6.22
2023-01-08T07:20:05.162Z,5.32
2023-01-08T07:22:32.057Z,5.25
2023-01-08T07:24:59.518Z,4.90
2023-01-08T07:27:26.479Z,7.05
2023-01-08T07:29:55.932Z,5.38
2023-01-08T07:32:22.937Z,5.25
2023-01-08T07:34:49.917Z,4.97
2023-01-08T07:37:16.735Z,7.53
2023-01-08T07:39:43.627Z,4.68
2023-01-08T07:42:10.374Z,4.70
2023-01-08T07:44:37.330Z,5.07
2023-01-08T07:47:04.101Z,4.72
2023-01-08T07:49:30.915Z,5.45
2023-01-08T07:51:57.666Z,5.03
2023-01-08T07:54:24.449Z,6.38
2023-01-08T07:56:53.737Z,5.47
2023-01-08T07:59:20.563Z,4.75
2023-01-08T08:01:47.478Z,7.13
2023-01-08T08:04:17.502Z,5.93
2023-01-08T08:06:44.268Z,7.25
2023-01-08T08:09:11.053Z,5.43
2023-01-08T08:11:38.545Z,4.68
2023-01-08T08:14:05.549Z,4.55
2023-01-08T08:16:32.370Z,3.92
2023-01-08T08:18:59.741Z,3.92
2023-01-08T08:21:26.879Z,3.35
2023-01-08T08:23:53.750Z,3.53
2023-01-08T08:26:20.553Z,7.72
2023-01-08T08:28:47.416Z,5.10
2023-01-08T08:31:14.288Z,45.45
2023-01-08T08:33:41.204Z,64.30
2023-01-08T08:36:08.708Z,30.20
2023-01-08T08:38:37.914Z,9.75
2023-01-08T08:41:04.818Z,9.25
2023-01-08T08:48:33.855Z,3.28
2023-01-08T08:51:00.678Z,3.33
2023-01-08T08:53:27.823Z,4.55
2023-01-08T08:55:54.694Z,3.28
2023-01-08T08:58:21.479Z,3.50
2023-01-08T09:00:48.313Z,9.13
2023-01-08T09:03:16.050Z,15.15
2023-01-08T09:05:43.523Z,10.35
2023-01-08T09:08:11.370Z,11.98
2023-01-08T09:10:41.520Z,5.22
2023-01-08T09:13:08.942Z,4.53
2023-01-08T09:15:36.925Z,6.20
2023-01-08T09:18:04.438Z,4.55
2023-01-08T09:20:31.472Z,3.85
2023-01-08T09:22:59.532Z,5.30
2023-01-08T09:25:26.891Z,4.93
2023-01-08T09:28:05.887Z,4.50
2023-01-08T09:30:33.185Z,3.60
2023-01-08T09:33:02.738Z,4.88
2023-01-08T09:35:30.523Z,19.63
2023-01-08T09:37:57.583Z,87.63
2023-01-08T09:40:48.401Z,32.70
2023-01-08T09:43:19.857Z,16.95
2023-01-08T09:45:51.762Z,10.35
2023-01-08T09:48:20.395Z,6.32
2023-01-08T09:50:48.536Z,6.38
2023-01-08T09:53:17.800Z,7.07
2023-01-08T09:56:08.691Z,7.70
2023-01-08T09:58:59.979Z,6.35
2023-01-08T10:01:35.011Z,7.65
2023-01-08T10:04:07.335Z,52.92
2023-01-08T10:06:34.186Z,188.90
2023-01-08T10:09:01.078Z,97.35
2023-01-08T10:11:38.033Z,23.15
2023-01-08T10:14:11.043Z,9.32
2023-01-08T10:16:38.620Z,7.20
2023-01-08T10:19:05.714Z,5.72
2023-01-08T10:21:39.661Z,8.98
2023-01-08T10:24:07.161Z,8.82
2023-01-08T10:26:36.613Z,8.52
2023-01-08T10:29:07.648Z,8.27
2023-01-08T10:31:38.941Z,8.60
2023-01-08T10:34:10.917Z,9.48
2023-01-08T10:36:42.402Z,9.85
2023-01-08T10:39:23.453Z,7.28
2023-01-08T10:41:53.779Z,7.60
2023-01-08T10:44:22.675Z,16.50
2023-01-08T10:46:53.756Z,14.75
2023-01-08T10:49:39.296Z,12.32
2023-01-08T10:52:06.288Z,8.70
2023-01-08T10:54:36.854Z,8.38
2023-01-08T10:57:19.782Z,9.60
2023-01-08T10:59:46.563Z,10.30
2023-01-08T11:02:28.532Z,8.77
2023-01-08T11:04:55.416Z,7.90
2023-01-08T11:07:23.767Z,6.45
2023-01-08T11:09:52.212Z,6.63
2023-01-08T11:12:40.619Z,8.55
2023-01-08T11:15:30.752Z,8.55
2023-01-08T11:18:16.327Z,8.48
2023-01-08T11:20:43.164Z,6.80
2023-01-08T11:23:27.711Z,8.82
2023-01-08T11:26:10.268Z,7.93
2023-01-08T11:28:50.809Z,5.22
2023-01-08T11:31:49.653Z,5.88
2023-01-08T11:34:18.726Z,8.10
2023-01-08T11:36:59.219Z,9.57
2023-01-08T11:39:26.103Z,10.13
2023-01-08T11:42:07.960Z,29.50
2023-01-08T11:45:12.075Z,11.90
2023-01-08T11:47:44.796Z,8.02
2023-01-08T11:50:43.178Z,6.32
2023-01-08T11:53:43.466Z,4.85
2023-01-08T11:56:31.906Z,5.95
2023-01-08T11:59:16.723Z,5.30
2023-01-08T12:01:54.556Z,5.63
2023-01-08T12:04:44.894Z,5.43
2023-01-08T12:07:23.587Z,5.80
2023-01-08T12:10:10.957Z,7.10
2023-01-08T12:12:46.681Z,6.50
2023-01-08T12:15:26.582Z,4.80
2023-01-08T12:18:35.914Z,5.57
2023-01-08T12:21:05.787Z,9.30
2023-01-08T12:23:38.761Z,7.78
2023-01-08T12:26:39.688Z,12.68
2023-01-08T12:29:25.134Z,9.43
2023-01-08T12:32:02.567Z,13.32
2023-01-08T12:35:12.643Z,8.20
2023-01-08T12:37:50.014Z,53.42
2023-01-08T12:40:23.911Z,37.03
2023-01-08T12:43:00.598Z,15.40
2023-01-08T12:45:35.320Z,8.80
2023-01-08T12:48:08.912Z,10.05
2023-01-08T12:50:49.451Z,6.75
2023-01-08T12:53:32.595Z,5.72
2023-01-08T12:56:14.368Z,6.85
2023-01-08T12:58:57.437Z,6.13
2023-01-08T13:01:30.097Z,5.18
2023-01-08T13:03:59.059Z,5.18
2023-01-08T13:06:26.382Z,5.45
2023-01-08T13:08:56.439Z,7.68
2023-01-08T13:11:34.896Z,6.35
2023-01-08T13:14:11.601Z,6.50
2023-01-08T13:16:40.898Z,6.63
2023-01-08T13:19:26.479Z,7.70
2023-01-08T13:21:55.923Z,6.65
2023-01-08T13:24:33.267Z,6.85
2023-01-08T13:27:28.524Z,6.28
2023-01-08T13:29:58.134Z,8.80
2023-01-08T13:32:38.200Z,10.63
2023-01-08T13:35:17.472Z,18.30
2023-01-08T13:37:52.756Z,11.02
2023-01-08T13:40:53.090Z,7.72
2023-01-08T13:43:21.658Z,6.65
2023-01-08T13:46:15.436Z,6.30
2023-01-08T13:49:00.828Z,5.80
2023-01-08T13:51:35.129Z,5.97
2023-01-08T13:54:27.574Z,4.50
2023-01-08T13:57:03.880Z,5.15
2023-01-08T13:59:34.088Z,6.82
2023-01-08T14:02:01.762Z,11.23
2023-01-08T14:04:28.841Z,12.70
2023-01-08T14:07:13.475Z,45.83
2023-01-08T14:09:40.341Z,33.38
2023-01-08T14:12:14.317Z,26.90
2023-01-08T14:14:47.186Z,20.50
2023-01-08T14:17:16.889Z,20.85
2023-01-08T14:19:44.958Z,8.30
2023-01-08T14:22:19.563Z,8.10
2023-01-08T14:24:52.190Z,7.88
2023-01-08T14:27:28.674Z,4.50
2023-01-08T14:29:56.085Z,5.85
2023-01-08T14:32:29.441Z,4.97
2023-01-08T14:34:58.644Z,6.03
2023-01-08T14:37:25.729Z,5.45
2023-01-08T14:39:54.747Z,5.40
2023-01-08T14:42:42.409Z,5.57
2023-01-08T14:47:46.324Z,8.10
2023-01-08T14:50:28.140Z,9.40
2023-01-08T14:53:08.344Z,9.63
2023-01-08T14:55:41.905Z,9.30
2023-01-08T14:58:29.657Z,12.07
2023-01-08T15:01:02.970Z,12.70
2023-01-08T15:03:31.386Z,11.57
2023-01-08T15:05:58.544Z,10.23
2023-01-08T15:08:32.359Z,13.38
2023-01-08T15:11:19.454Z,12.18
2023-01-08T15:13:47.795Z,11.05
2023-01-08T15:16:33.350Z,10.68
2023-01-08T15:19:02.721Z,14.73
2023-01-08T15:21:29.732Z,16.27
2023-01-08T15:23:58.379Z,35.53
2023-01-08T15:26:25.397Z,49.03
2023-01-08T15:29:05.213Z,42.30
2023-01-08T15:31:41.451Z,71.38
2023-01-08T15:34:08.910Z,71.82
2023-01-08T15:36:35.784Z,57.15
2023-01-08T15:39:02.938Z,42.45
2023-01-08T15:41:56.027Z,30.40
2023-01-08T15:44:23.789Z,42.10
2023-01-08T15:46:52.563Z,46.83
2023-01-08T15:49:19.477Z,29.25
2023-01-08T15:51:51.917Z,24.10
2023-01-08T15:54:21.444Z,19.83
2023-01-08T15:56:48.230Z,18.58
2023-01-08T15:59:15.067Z,17.33
2023-01-08T16:01:41.946Z,16.80
2023-01-08T16:04:08.891Z,18.33
2023-01-08T16:06:36.326Z,16.35
2023-01-08T16:09:03.793Z,21.33
2023-01-08T16:11:30.701Z,15.55
2023-01-08T16:13:57.476Z,16.65
2023-01-08T16:16:24.371Z,16.05
2023-01-08T16:18:52.527Z,16.10
2023-01-08T16:21:19.442Z,16.92
2023-01-08T16:23:46.305Z,20.77
2023-01-08T16:26:15.268Z,26.92
2023-01-08T16:28:42.744Z,24.90
2023-01-08T16:31:10.423Z,25.20
2023-01-08T16:33:37.773Z,21.50
2023-01-08T16:36:09.043Z,19.83
2023-01-08T16:38:36.627Z,18.83
2023-01-08T16:41:04.243Z,15.23
2023-01-08T16:43:38.104Z,15.05
2023-01-08T16:46:13.862Z,18.58
2023-01-08T16:48:44.516Z,76.63
2023-01-08T16:51:11.641Z,43.65
2023-01-08T16:53:38.475Z,17.55
2023-01-08T16:56:06.035Z,15.32
2023-01-08T16:58:34.999Z,13.60
2023-01-08T17:01:06.677Z,15.30
2023-01-08T17:03:33.605Z,14.50
2023-01-08T17:06:05.382Z,13.23
2023-01-08T17:08:32.132Z,11.02
2023-01-08T17:10:58.913Z,12.07
2023-01-08T17:13:25.808Z,10.82
2023-01-08T17:15:53.199Z,10.43
2023-01-08T17:18:20.328Z,9.95
2023-01-08T17:20:53.837Z,12.88
2023-01-08T17:23:20.645Z,11.07
2023-01-08T17:25:47.401Z,9.27
2023-01-08T17:28:14.180Z,9.73
2023-01-08T17:30:40.992Z,11.50
2023-01-08T17:33:08.129Z,10.32
2023-01-08T17:35:34.956Z,10.05
2023-01-08T17:38:01.723Z,14.20
2023-01-08T17:40:28.542Z,14.93
2023-01-08T17:42:55.849Z,13.60
2023-01-08T17:45:22.766Z,16.83
2023-01-08T17:47:49.557Z,14.40
2023-01-08T17:50:16.693Z,17.70
2023-01-08T17:52:43.498Z,20.90
2023-01-08T17:55:10.295Z,19.17
2023-01-08T17:57:37.243Z,18.30
2023-01-08T18:00:04.578Z,18.83
2023-01-08T18:02:31.509Z,15.82
2023-01-08T18:04:58.640Z,17.25
2023-01-08T18:07:25.408Z,17.20
2023-01-08T18:09:56.946Z,16.33
2023-01-08T18:12:23.753Z,18.83
2023-01-08T18:14:50.563Z,18.67
2023-01-08T18:17:18.088Z,20.40
2023-01-08T18:19:44.978Z,20.00
2023-01-08T18:22:11.801Z,14.27
2023-01-08T18:24:38.617Z,15.50
2023-01-08T18:27:05.442Z,13.65
2023-01-08T18:29:32.208Z,14.85
2023-01-08T18:31:59.043Z,16.77
2023-01-08T18:34:26.750Z,19.40
2023-01-08T18:36:53.574Z,15.43
2023-01-08T18:39:22.376Z,17.67
2023-01-08T18:42:07.656Z,19.73
2023-01-08T18:44:34.550Z,19.00
2023-01-08T18:47:01.443Z,18.23
2023-01-08T18:49:28.228Z,18.80
2023-01-08T18:51:55.073Z,19.65
2023-01-08T18:54:21.927Z,16.67
2023-01-08T18:56:49.895Z,24.33
2023-01-08T18:59:17.410Z,26.73
2023-01-08T19:01:44.313Z,17.30
2023-01-08T19:04:18.181Z,24.20
2023-01-08T19:06:46.114Z,17.52
2023-01-08T19:09:14.260Z,19.92
2023-01-08T19:11:42.293Z,18.75
2023-01-08T19:14:11.079Z,19.60
2023-01-08T19:16:38.087Z,17.10
2023-01-08T19:19:04.946Z,12.30
2023-01-08T19:21:32.905Z,15.55
2023-01-08T19:23:59.719Z,14.63
2023-01-08T19:26:26.560Z,9.43
2023-01-08T19:28:53.358Z,9.60
2023-01-08T19:31:20.187Z,10.73
2023-01-08T19:33:47.024Z,9.60
2023-01-08T19:36:16.417Z,8.88
2023-01-08T19:38:44.538Z,9.15
2023-01-08T19:41:30.734Z,11.68
2023-01-08T19:43:58.517Z,10.32
2023-01-08T19:46:25.612Z,7.88
2023-01-08T19:48:52.956Z,7.55
2023-01-08T19:51:19.936Z,10.10
2023-01-08T19:53:46.740Z,11.10
2023-01-08T19:56:14.953Z,13.15
2023-01-08T19:58:42.334Z,9.00
2023-01-08T20:01:19.140Z,9.77
2023-01-08T20:03:46.462Z,10.10
2023-01-08T20:06:20.604Z,6.90
2023-01-08T20:08:48.996Z,10.75
2023-01-08T20:11:17.774Z,9.82
2023-01-08T20:13:44.711Z,11.25
2023-01-08T20:16:14.393Z,8.98
2023-01-08T20:18:41.277Z,14.35
2023-01-08T20:21:15.505Z,11.13
2023-01-08T20:23:43.882Z,13.27
2023-01-08T20:26:15.466Z,13.40
2023-01-08T20:28:44.002Z,12.07
2023-01-08T20:31:16.104Z,7.95
2023-01-08T20:36:12.974Z,8.55
2023-01-08T20:38:39.854Z,8.40
2023-01-08T20:41:07.148Z,7.25
2023-01-08T20:43:35.206Z,8.40
2023-01-08T20:46:03.002Z,7.65
2023-01-08T20:48:37.078Z,8.23
2023-01-08T20:51:06.716Z,8.50
2023-01-08T20:53:36.930Z,8.50
2023-01-08T20:56:06.527Z,10.07
2023-01-08T20:58:34.180Z,9.75
2023-01-08T21:01:09.726Z,12.75
2023-01-08T21:03:36.809Z,11.60
2023-01-08T21:06:16.175Z,9.35
2023-01-08T21:08:44.531Z,11.48
2023-01-08T21:11:12.857Z,11.95
2023-01-08T21:13:40.423Z,11.52
2023-01-08T21:16:10.689Z,13.10
2023-01-08T21:18:40.543Z,14.00
2023-01-08T21:21:08.082Z,15.25
2023-01-08T21:23:34.989Z,14.23
2023-01-08T21:26:05.624Z,11.32
2023-01-08T21:28:33.062Z,11.63
2023-01-08T21:31:15.486Z,11.90
2023-01-08T21:33:46.115Z,11.35
2023-01-08T21:36:16.451Z,11.05
2023-01-08T21:38:44.025Z,13.02
2023-01-08T21:41:33.438Z,12.38
2023-01-08T21:44:19.450Z,10.23
2023-01-08T21:46:46.514Z,10.43
2023-01-08T21:49:13.482Z,10.48
2023-01-08T21:51:59.186Z,11.00
2023-01-08T21:54:25.983Z,11.90
2023-01-08T21:56:52.763Z,10.55
2023-01-08T21:59:19.645Z,11.07
2023-01-08T22:01:46.606Z,11.05
2023-01-08T22:04:13.676Z,11.32
2023-01-08T22:06:42.779Z,11.15
2023-01-08T22:09:09.875Z,10.75
2023-01-08T22:11:36.699Z,10.10
2023-01-08T22:14:03.571Z,10.63
2023-01-08T22:16:30.410Z,9.32
2023-01-08T22:18:57.335Z,10.65
2023-01-08T22:21:24.131Z,8.85
2023-01-08T22:23:51.028Z,9.23
2023-01-08T22:26:20.125Z,8.90
2023-01-08T22:28:47.100Z,8.50
2023-01-08T22:31:15.599Z,10.63
2023-01-08T22:33:42.913Z,11.05
2023-01-08T22:36:12.405Z,8.52
2023-01-08T22:38:39.357Z,8.77
2023-01-08T22:41:15.258Z,10.32
2023-01-08T22:43:42.114Z,10.15
2023-01-08T22:46:13.333Z,10.05
2023-01-08T22:48:40.481Z,10.73
2023-01-08T22:51:07.902Z,12.40
2023-01-08T22:53:35.560Z,13.35
2023-01-08T22:56:05.142Z,12.15
2023-01-08T22:58:31.977Z,11.80
2023-01-08T23:00:58.841Z,8.55
2023-01-08T23:03:27.189Z,9.32
2023-01-08T23:06:02.573Z,10.57
2023-01-08T23:08:29.441Z,9.32
2023-01-08T23:10:57.403Z,9.07
2023-01-08T23:13:24.279Z,9.23
2023-01-08T23:15:51.096Z,8.82
2023-01-08T23:18:17.926Z,8.75
2023-01-08T23:20:44.807Z,11.77
2023-01-08T23:23:11.596Z,9.50
2023-01-08T23:25:38.452Z,9.48
2023-01-08T23:28:05.358Z,9.15
2023-01-08T23:30:32.862Z,10.57
2023-01-08T23:33:00.424Z,10.10
2023-01-08T23:35:27.274Z,16.65
2023-01-08T23:37:54.043Z,9.25
2023-01-08T23:40:20.943Z,9.70
2023-01-08T23:42:47.746Z,8.50
2023-01-08T23:45:14.581Z,12.02
2023-01-08T23:47:41.382Z,9.68
2023-01-08T23:50:08.950Z,9.02
2023-01-08T23:52:35.850Z,10.27
2023-01-08T23:55:02.666Z,9.70
2023-01-08T23:57:29.448Z,9.32
2023-01-08T23:59:56.548Z,9.18
